createdAt,value
2023-05-13T00:01:39.015Z,35.09
2023-05-13T00:04:09.760Z,35.38
2023-05-13T00:06:41.266Z,35.40
2023-05-13T00:09:10.417Z,35.38
2023-05-13T00:11:41.305Z,35.65
2023-05-13T00:14:12.505Z,35.57
2023-05-13T00:16:41.516Z,35.66
2023-05-13T00:19:12.668Z,35.87
2023-05-13T00:21:44.965Z,35.96
2023-05-13T00:24:13.901Z,35.65
2023-05-13T00:26:43.096Z,35.80
2023-05-13T00:29:12.288Z,35.95
2023-05-13T00:31:41.728Z,36.12
2023-05-13T00:34:11.648Z,36.04
2023-05-13T00:36:43.798Z,36.27
2023-05-13T00:39:13.718Z,36.33
2023-05-13T00:41:43.198Z,36.35
2023-05-13T00:44:15.084Z,36.23
2023-05-13T00:46:45.443Z,36.49
2023-05-13T00:49:14.277Z,36.61
2023-05-13T00:51:44.505Z,36.73
2023-05-13T00:54:16.444Z,36.57
2023-05-13T00:56:46.137Z,36.80
2023-05-13T00:59:17.697Z,36.88
2023-05-13T01:01:56.090Z,37.24
2023-05-13T01:04:26.408Z,37.49
2023-05-13T01:06:55.716Z,37.80
2023-05-13T01:09:27.567Z,37.79
2023-05-13T01:12:02.084Z,38.06
2023-05-13T01:14:36.062Z,38.18
2023-05-13T01:17:21.253Z,38.54
2023-05-13T01:19:52.920Z,38.15
2023-05-13T01:22:22.140Z,38.29
2023-05-13T01:24:51.122Z,38.24
2023-05-13T01:27:20.663Z,38.54
2023-05-13T01:29:52.173Z,38.39
2023-05-13T01:32:25.033Z,38.53
2023-05-13T01:34:54.392Z,38.74
2023-05-13T01:37:23.884Z,38.93
2023-05-13T01:39:54.009Z,38.95
2023-05-13T01:42:27.180Z,39.26
2023-05-13T01:44:56.829Z,39.62
2023-05-13T01:47:27.513Z,39.60
2023-05-13T01:49:56.541Z,39.63
2023-05-13T01:52:27.128Z,39.70
2023-05-13T01:54:55.997Z,40.04
2023-05-13T01:57:25.140Z,40.23
2023-05-13T01:59:55.031Z,40.26
2023-05-13T02:02:24.314Z,40.52
2023-05-13T02:04:53.514Z,40.39
2023-05-13T02:07:22.684Z,40.61
2023-05-13T02:09:55.778Z,40.72
2023-05-13T02:12:24.851Z,40.61
2023-05-13T02:14:58.272Z,40.84
2023-05-13T02:17:28.491Z,40.86
2023-05-13T02:19:58.215Z,40.95
2023-05-13T02:22:27.066Z,41.06
2023-05-13T02:24:56.365Z,41.14
2023-05-13T02:27:27.749Z,41.37
2023-05-13T02:29:56.840Z,41.16
2023-05-13T02:32:28.073Z,40.98
2023-05-13T02:34:57.755Z,41.17
2023-05-13T02:37:27.691Z,41.37
2023-05-13T02:40:01.641Z,41.26
2023-05-13T02:42:30.878Z,41.29
2023-05-13T02:45:01.457Z,41.60
2023-05-13T02:47:32.082Z,41.55
2023-05-13T02:50:06.338Z,41.51
2023-05-13T02:52:36.346Z,41.41
2023-05-13T02:55:11.034Z,41.61
2023-05-13T02:57:39.900Z,41.58
2023-05-13T03:00:10.291Z,41.71
2023-05-13T03:02:43.745Z,41.67
2023-05-13T03:05:19.827Z,41.88
2023-05-13T03:07:50.418Z,41.58
2023-05-13T03:10:20.461Z,41.62
2023-05-13T03:12:51.259Z,41.88
2023-05-13T03:15:21.612Z,41.54
2023-05-13T03:17:51.026Z,41.64
2023-05-13T03:20:21.474Z,41.71
2023-05-13T03:22:51.911Z,41.55
2023-05-13T03:25:21.753Z,41.60
2023-05-13T03:27:54.888Z,41.73
2023-05-13T03:30:25.812Z,41.54
2023-05-13T03:33:07.374Z,41.75
2023-05-13T03:35:36.956Z,41.60
2023-05-13T03:38:07.879Z,41.80
2023-05-13T03:40:39.146Z,41.79
2023-05-13T03:43:10.742Z,41.67
2023-05-13T03:45:41.441Z,41.77
2023-05-13T03:48:13.140Z,41.70
2023-05-13T03:50:42.183Z,41.70
2023-05-13T03:53:12.469Z,42.07
2023-05-13T03:55:42.384Z,41.75
2023-05-13T03:58:15.432Z,41.86
2023-05-13T04:00:48.796Z,41.85
2023-05-13T04:03:19.626Z,41.97
2023-05-13T04:05:49.029Z,42.08
2023-05-13T04:08:20.462Z,41.85
2023-05-13T04:10:49.848Z,41.97
2023-05-13T04:13:20.216Z,42.05
2023-05-13T04:15:51.433Z,42.09
2023-05-13T04:18:20.696Z,42.25
2023-05-13T04:20:49.575Z,42.00
2023-05-13T04:23:18.304Z,41.94
2023-05-13T04:25:52.694Z,42.30
2023-05-13T04:28:21.625Z,42.17
2023-05-13T04:30:52.117Z,42.31
2023-05-13T04:33:21.601Z,42.05
2023-05-13T04:35:51.253Z,42.04
2023-05-13T04:38:22.542Z,42.16
2023-05-13T04:40:52.508Z,42.08
2023-05-13T04:43:32.564Z,42.12
2023-05-13T04:46:02.795Z,42.18
2023-05-13T04:48:32.989Z,42.15
2023-05-13T04:51:03.080Z,41.95
2023-05-13T04:53:33.419Z,41.96
2023-05-13T04:56:05.355Z,41.86
2023-05-13T04:58:34.265Z,41.61
2023-05-13T05:01:04.368Z,41.52
2023-05-13T05:03:33.993Z,41.50
2023-05-13T05:06:03.949Z,41.53
2023-05-13T05:08:34.910Z,41.53
2023-05-13T05:11:04.283Z,41.50
2023-05-13T05:13:35.539Z,41.36
2023-05-13T05:16:04.590Z,41.50
2023-05-13T05:18:33.950Z,41.34
2023-05-13T05:21:03.638Z,41.28
2023-05-13T05:23:33.107Z,41.40
2023-05-13T05:26:11.859Z,41.41
2023-05-13T05:28:46.491Z,41.20
2023-05-13T05:31:15.718Z,41.14
2023-05-13T05:33:45.814Z,41.37
2023-05-13T05:36:15.700Z,41.12
2023-05-13T05:38:44.473Z,41.12
2023-05-13T05:41:14.429Z,41.12
2023-05-13T05:43:43.137Z,41.06
2023-05-13T05:46:13.910Z,40.99
2023-05-13T05:48:43.022Z,41.08
2023-05-13T05:51:13.126Z,41.01
2023-05-13T05:53:42.737Z,40.88
2023-05-13T05:56:13.796Z,40.79
2023-05-13T05:58:44.292Z,40.76
2023-05-13T06:01:13.794Z,40.68
2023-05-13T06:03:44.284Z,40.75
2023-05-13T06:06:13.222Z,40.68
2023-05-13T06:08:42.344Z,40.46
2023-05-13T06:11:11.071Z,40.38
2023-05-13T06:13:40.134Z,40.42
2023-05-13T06:16:10.205Z,40.36
2023-05-13T06:18:40.076Z,40.31
2023-05-13T06:21:08.849Z,40.33
2023-05-13T06:23:38.238Z,40.26
2023-05-13T06:26:08.268Z,40.18
2023-05-13T06:28:38.650Z,40.22
2023-05-13T06:31:09.903Z,39.89
2023-05-13T06:33:41.293Z,39.90
2023-05-13T06:36:10.066Z,39.95
2023-05-13T06:38:41.488Z,39.84
2023-05-13T06:41:12.071Z,39.76
2023-05-13T06:43:42.756Z,39.46
2023-05-13T06:46:22.420Z,39.57
2023-05-13T06:48:53.990Z,39.38
2023-05-13T06:51:25.373Z,39.41
2023-05-13T06:53:54.563Z,39.31
2023-05-13T06:56:24.102Z,39.17
2023-05-13T06:58:53.442Z,39.17
2023-05-13T07:01:22.240Z,39.22
2023-05-13T07:03:52.246Z,39.28
2023-05-13T07:06:21.588Z,39.05
2023-05-13T07:08:51.421Z,38.97
2023-05-13T07:11:21.590Z,38.77
2023-05-13T07:13:50.514Z,38.67
2023-05-13T07:16:21.958Z,38.17
2023-05-13T07:18:52.917Z,38.11
2023-05-13T07:21:23.188Z,38.28
2023-05-13T07:23:52.949Z,37.96
2023-05-13T07:26:22.197Z,37.81
2023-05-13T07:28:50.987Z,36.69
2023-05-13T07:31:19.975Z,35.81
2023-05-13T07:33:49.034Z,35.33
2023-05-13T07:36:17.842Z,34.93
2023-05-13T07:38:46.589Z,34.49
2023-05-13T07:41:16.540Z,34.40
2023-05-13T07:43:45.774Z,34.11
2023-05-13T07:46:14.609Z,32.78
2023-05-13T07:48:43.833Z,32.80
2023-05-13T07:51:12.642Z,32.13
2023-05-13T07:53:42.031Z,32.01
2023-05-13T07:56:10.879Z,32.32
2023-05-13T07:58:41.060Z,31.91
2023-05-13T08:01:11.341Z,31.52
2023-05-13T08:03:40.656Z,31.31
2023-05-13T08:06:09.657Z,28.71
2023-05-13T08:08:38.992Z,29.12
2023-05-13T08:11:09.678Z,28.53
2023-05-13T08:13:38.870Z,28.71
2023-05-13T08:16:08.855Z,28.65
2023-05-13T08:18:38.413Z,28.37
2023-05-13T08:21:07.257Z,28.04
2023-05-13T08:23:44.811Z,27.04
2023-05-13T08:26:14.363Z,26.13
2023-05-13T08:28:43.239Z,25.84
2023-05-13T08:31:13.108Z,26.11
2023-05-13T08:33:46.512Z,25.83
2023-05-13T08:36:16.565Z,25.56
2023-05-13T08:38:46.246Z,25.24
2023-05-13T08:41:15.857Z,25.12
2023-05-13T08:43:47.408Z,23.86
2023-05-13T08:46:17.418Z,23.57
2023-05-13T08:48:47.562Z,23.50
2023-05-13T08:51:16.999Z,23.40
2023-05-13T08:53:46.700Z,22.82
2023-05-13T08:56:15.793Z,22.65
2023-05-13T08:58:45.042Z,21.41
2023-05-13T09:01:14.080Z,22.21
2023-05-13T09:03:53.403Z,22.89
2023-05-13T09:06:22.910Z,23.02
2023-05-13T09:08:53.285Z,22.31
2023-05-13T09:11:22.938Z,20.05
2023-05-13T09:14:03.231Z,19.52
2023-05-13T09:16:33.483Z,20.36
2023-05-13T09:19:06.381Z,20.56
2023-05-13T09:21:38.628Z,20.32
2023-05-13T09:24:18.847Z,19.75
2023-05-13T09:26:49.992Z,19.63
2023-05-13T09:29:27.349Z,19.21
2023-05-13T09:31:58.183Z,19.11
2023-05-13T09:34:31.888Z,18.23
2023-05-13T09:37:03.797Z,19.40
2023-05-13T09:39:34.175Z,19.31
2023-05-13T09:42:05.097Z,18.57
2023-05-13T09:44:34.744Z,18.65
2023-05-13T09:47:05.015Z,18.42
2023-05-13T09:49:34.219Z,18.20
2023-05-13T09:52:05.127Z,18.50
2023-05-13T09:54:39.411Z,18.59
2023-05-13T09:57:08.516Z,17.62
2023-05-13T09:59:39.247Z,17.81
2023-05-13T10:02:10.738Z,17.31
2023-05-13T10:04:40.595Z,17.81
2023-05-13T10:07:10.137Z,17.93
2023-05-13T10:09:39.729Z,17.58
2023-05-13T10:12:12.083Z,17.71
2023-05-13T10:14:42.390Z,18.13
2023-05-13T10:17:13.370Z,18.25
2023-05-13T10:19:42.943Z,18.33
2023-05-13T10:22:14.707Z,18.21
2023-05-13T10:24:45.681Z,17.47
2023-05-13T10:27:16.321Z,17.56
2023-05-13T10:30:15.393Z,17.21
2023-05-13T10:32:44.213Z,17.32
2023-05-13T10:35:18.341Z,17.25
2023-05-13T10:37:49.857Z,17.65
2023-05-13T10:40:30.138Z,17.23
2023-05-13T10:43:14.862Z,17.45
2023-05-13T10:45:49.737Z,17.52
2023-05-13T10:48:22.059Z,17.84
2023-05-13T10:50:57.008Z,18.10
2023-05-13T10:53:29.162Z,17.86
2023-05-13T10:56:03.424Z,17.85
2023-05-13T10:58:34.652Z,17.34
2023-05-13T11:01:34.402Z,17.40
2023-05-13T11:04:05.243Z,17.68
2023-05-13T11:06:39.014Z,17.48
2023-05-13T11:09:16.053Z,17.60
2023-05-13T11:11:48.177Z,18.02
2023-05-13T11:14:36.994Z,18.13
2023-05-13T11:17:12.124Z,18.27
2023-05-13T11:19:48.064Z,18.40
2023-05-13T11:22:21.333Z,18.12
2023-05-13T11:25:12.305Z,18.24
2023-05-13T11:27:44.425Z,18.45
2023-05-13T11:31:08.345Z,18.65
2023-05-13T11:33:56.337Z,18.45
2023-05-13T11:36:30.317Z,18.49
2023-05-13T11:39:06.961Z,18.78
2023-05-13T11:41:36.910Z,18.73
2023-05-13T11:44:07.284Z,18.87
2023-05-13T11:46:37.342Z,18.53
2023-05-13T11:49:08.165Z,18.33
2023-05-13T11:51:41.518Z,18.41
2023-05-13T11:54:13.603Z,18.53
2023-05-13T11:56:44.823Z,18.87
2023-05-13T11:59:17.729Z,18.80
2023-05-13T12:01:48.406Z,18.70
2023-05-13T12:04:20.543Z,18.50
2023-05-13T12:06:51.210Z,18.71
2023-05-13T12:09:26.971Z,19.10
2023-05-13T12:11:56.016Z,18.73
2023-05-13T12:14:29.395Z,18.85
2023-05-13T12:16:59.284Z,18.91
2023-05-13T12:19:33.185Z,19.05
2023-05-13T12:22:05.476Z,18.88
2023-05-13T12:24:39.180Z,19.12
2023-05-13T12:27:11.279Z,19.34
2023-05-13T12:30:08.041Z,19.09
2023-05-13T12:32:47.204Z,19.38
2023-05-13T12:35:16.521Z,19.17
2023-05-13T12:37:59.656Z,18.89
2023-05-13T12:43:23.061Z,18.73
2023-05-13T12:45:55.191Z,18.96
2023-05-13T12:48:25.980Z,18.96
2023-05-13T12:50:56.943Z,18.99
2023-05-13T12:53:26.995Z,19.03
2023-05-13T12:55:57.748Z,18.95
2023-05-13T12:58:27.068Z,19.07
2023-05-13T13:00:58.805Z,19.18
2023-05-13T13:03:30.857Z,19.19
2023-05-13T13:06:01.640Z,19.12
2023-05-13T13:08:31.198Z,19.21
2023-05-13T13:11:01.028Z,18.96
2023-05-13T13:13:30.113Z,19.12
2023-05-13T13:16:03.362Z,19.25
2023-05-13T13:18:36.157Z,19.20
2023-05-13T13:21:06.391Z,19.52
2023-05-13T13:23:39.477Z,18.98
2023-05-13T13:26:17.623Z,19.05
2023-05-13T13:28:51.626Z,19.13
2023-05-13T13:31:25.663Z,19.03
2023-05-13T13:33:57.748Z,19.16
2023-05-13T13:36:31.439Z,19.38
2023-05-13T13:39:07.007Z,19.59
2023-05-13T13:41:38.217Z,20.07
2023-05-13T13:44:08.758Z,20.33
2023-05-13T13:46:37.859Z,20.32
2023-05-13T13:49:22.683Z,20.66
2023-05-13T13:51:53.782Z,20.72
2023-05-13T13:54:23.865Z,20.81
2023-05-13T13:56:57.658Z,21.27
2023-05-13T13:59:26.952Z,21.40
2023-05-13T14:01:58.062Z,21.67
2023-05-13T14:04:31.155Z,21.73
2023-05-13T14:07:03.370Z,21.59
2023-05-13T14:09:36.049Z,21.77
2023-05-13T14:12:06.089Z,21.89
2023-05-13T14:14:35.480Z,22.03
2023-05-13T14:17:05.324Z,21.85
2023-05-13T14:19:35.335Z,22.08
2023-05-13T14:22:07.153Z,22.10
2023-05-13T14:24:37.917Z,21.98
2023-05-13T14:27:09.765Z,21.89
2023-05-13T14:29:39.169Z,21.54
2023-05-13T14:32:09.947Z,21.11
2023-05-13T14:34:39.367Z,20.77
2023-05-13T14:37:11.756Z,20.95
2023-05-13T14:39:40.968Z,21.00
2023-05-13T14:42:13.762Z,21.18
2023-05-13T14:44:44.396Z,21.16
2023-05-13T14:47:13.493Z,21.52
2023-05-13T14:49:43.554Z,21.71
2023-05-13T14:52:14.360Z,21.86
2023-05-13T14:54:45.193Z,22.11
2023-05-13T14:57:14.775Z,22.21
2023-05-13T14:59:43.641Z,22.37
2023-05-13T15:02:17.807Z,22.56
2023-05-13T15:04:50.959Z,22.47
2023-05-13T15:07:20.090Z,22.32
2023-05-13T15:09:50.804Z,22.36
2023-05-13T15:12:22.327Z,22.31
2023-05-13T15:14:52.634Z,22.51
2023-05-13T15:17:23.002Z,22.59
2023-05-13T15:19:51.955Z,22.66
2023-05-13T15:22:20.941Z,22.64
2023-05-13T15:24:51.416Z,22.69
2023-05-13T15:27:20.654Z,22.49
2023-05-13T15:29:55.552Z,22.58
2023-05-13T15:32:27.544Z,22.69
2023-05-13T15:34:57.225Z,22.75
2023-05-13T15:37:26.171Z,22.70
2023-05-13T15:39:55.538Z,22.77
2023-05-13T15:42:26.087Z,22.94
2023-05-13T15:44:57.784Z,23.12
2023-05-13T15:47:29.971Z,23.18
2023-05-13T15:50:00.577Z,23.18
2023-05-13T15:52:30.501Z,23.37
2023-05-13T15:55:00.978Z,23.46
2023-05-13T15:57:30.700Z,23.67
2023-05-13T16:00:03.760Z,23.85
2023-05-13T16:02:39.503Z,24.06
2023-05-13T16:05:12.541Z,24.06
2023-05-13T16:07:42.969Z,24.17
2023-05-13T16:10:12.295Z,24.12
2023-05-13T16:12:41.387Z,24.24
2023-05-13T16:15:11.751Z,24.23
2023-05-13T16:17:41.186Z,24.28
2023-05-13T16:20:11.769Z,24.68
2023-05-13T16:22:41.912Z,24.82
2023-05-13T16:25:15.045Z,24.65
2023-05-13T16:27:47.429Z,24.53
2023-05-13T16:30:18.347Z,24.63
2023-05-13T16:32:49.327Z,24.67
2023-05-13T16:35:18.049Z,24.79
2023-05-13T16:37:48.823Z,24.76
2023-05-13T16:40:17.660Z,24.69
2023-05-13T16:42:47.281Z,24.66
2023-05-13T16:45:16.730Z,24.74
2023-05-13T16:47:45.687Z,24.70
2023-05-13T16:50:14.945Z,24.70
2023-05-13T16:52:45.563Z,24.84
2023-05-13T16:55:14.384Z,24.79
2023-05-13T16:57:44.114Z,24.73
2023-05-13T17:00:14.961Z,24.85
2023-05-13T17:02:44.041Z,24.79
2023-05-13T17:05:13.437Z,25.19
2023-05-13T17:07:44.269Z,25.17
2023-05-13T17:10:14.616Z,25.15
2023-05-13T17:12:44.071Z,25.12
2023-05-13T17:15:13.600Z,25.12
2023-05-13T17:17:42.382Z,24.96
2023-05-13T17:20:11.634Z,25.29
2023-05-13T17:22:45.782Z,25.26
2023-05-13T17:25:15.278Z,25.52
2023-05-13T17:27:45.587Z,25.77
2023-05-13T17:30:16.058Z,25.85
2023-05-13T17:32:45.107Z,26.00
2023-05-13T17:35:14.425Z,26.00
2023-05-13T17:37:43.302Z,26.30
2023-05-13T17:40:12.504Z,26.55
2023-05-13T17:42:41.776Z,26.49
2023-05-13T17:45:11.561Z,26.68
2023-05-13T17:47:42.247Z,26.70
2023-05-13T17:50:11.378Z,26.80
2023-05-13T17:52:40.993Z,26.82
2023-05-13T17:55:11.054Z,26.87
2023-05-13T17:57:42.320Z,26.99
2023-05-13T18:00:14.750Z,27.16
2023-05-13T18:02:43.926Z,27.28
2023-05-13T18:05:14.117Z,27.33
2023-05-13T18:07:43.288Z,27.34
2023-05-13T18:10:12.477Z,27.62
2023-05-13T18:12:41.263Z,27.92
2023-05-13T18:15:10.849Z,27.85
2023-05-13T18:17:41.128Z,27.97
2023-05-13T18:20:10.560Z,28.05
2023-05-13T18:22:39.876Z,28.07
2023-05-13T18:25:10.557Z,28.22
2023-05-13T18:27:39.780Z,28.35
2023-05-13T18:30:11.012Z,28.49
2023-05-13T18:32:40.510Z,28.53
2023-05-13T18:35:10.050Z,28.67
2023-05-13T18:37:41.328Z,28.74
2023-05-13T18:40:10.981Z,28.86
2023-05-13T18:42:40.564Z,28.98
2023-05-13T18:45:10.382Z,29.14
2023-05-13T18:47:40.990Z,29.40
2023-05-13T18:50:11.824Z,29.55
2023-05-13T18:52:43.035Z,29.74
2023-05-13T18:55:15.363Z,29.72
2023-05-13T18:57:46.907Z,29.96
2023-05-13T19:00:18.265Z,30.08
2023-05-13T19:02:51.717Z,30.12
2023-05-13T19:05:21.751Z,30.35
2023-05-13T19:07:50.499Z,30.49
2023-05-13T19:10:20.446Z,30.68
2023-05-13T19:12:49.506Z,30.86
2023-05-13T19:15:23.470Z,30.84
2023-05-13T19:17:55.188Z,31.09
2023-05-13T19:20:26.225Z,31.20
2023-05-13T19:22:55.727Z,31.23
2023-05-13T19:25:26.264Z,31.40
2023-05-13T19:27:57.365Z,31.44
2023-05-13T19:30:29.565Z,31.53
2023-05-13T19:32:59.808Z,31.59
2023-05-13T19:35:29.749Z,31.70
2023-05-13T19:37:59.931Z,31.71
2023-05-13T19:40:32.146Z,31.69
2023-05-13T19:43:05.455Z,31.63
2023-05-13T19:45:37.969Z,31.82
2023-05-13T19:48:09.076Z,31.92
2023-05-13T19:50:43.737Z,31.87
2023-05-13T19:53:17.904Z,32.01
2023-05-13T19:55:47.942Z,32.06
2023-05-13T19:58:17.304Z,32.04
2023-05-13T20:00:47.235Z,32.17
2023-05-13T20:03:18.755Z,32.29
2023-05-13T20:05:49.524Z,32.33
2023-05-13T20:08:22.695Z,32.29
2023-05-13T20:10:51.887Z,32.55
2023-05-13T20:13:20.687Z,32.63
2023-05-13T20:15:51.914Z,32.61
2023-05-13T20:18:22.191Z,32.58
2023-05-13T20:20:52.409Z,32.91
2023-05-13T20:23:22.727Z,32.84
2023-05-13T20:26:02.817Z,32.86
2023-05-13T20:28:36.142Z,32.96
2023-05-13T20:31:08.700Z,33.02
2023-05-13T20:33:39.947Z,32.94
2023-05-13T20:36:12.629Z,33.17
2023-05-13T20:38:42.643Z,33.07
2023-05-13T20:41:12.969Z,33.20
2023-05-13T20:43:41.692Z,33.34
2023-05-13T20:46:15.387Z,33.44
2023-05-13T20:48:45.262Z,33.56
2023-05-13T20:51:14.167Z,33.55
2023-05-13T20:53:43.669Z,33.57
2023-05-13T20:56:13.194Z,33.74
2023-05-13T20:58:42.070Z,33.66
2023-05-13T21:01:13.027Z,33.78
2023-05-13T21:03:42.943Z,33.84
2023-05-13T21:06:13.962Z,33.89
2023-05-13T21:08:44.516Z,33.83
2023-05-13T21:11:13.758Z,34.04
2023-05-13T21:13:44.302Z,34.03
2023-05-13T21:16:13.278Z,34.14
2023-05-13T21:18:43.453Z,34.27
2023-05-13T21:21:13.765Z,34.16
2023-05-13T21:23:46.015Z,34.21
2023-05-13T21:26:15.313Z,34.40
2023-05-13T21:28:46.555Z,34.41
2023-05-13T21:31:17.091Z,34.50
2023-05-13T21:33:46.113Z,34.52
2023-05-13T21:36:15.448Z,34.49
2023-05-13T21:38:44.323Z,34.68
2023-05-13T21:41:13.264Z,34.72
2023-05-13T21:43:42.877Z,34.81
2023-05-13T21:46:13.372Z,34.98
2023-05-13T21:48:42.872Z,34.81
2023-05-13T21:51:11.962Z,34.93
2023-05-13T21:53:40.846Z,34.95
2023-05-13T21:56:09.600Z,34.98
2023-05-13T21:58:38.816Z,35.10
2023-05-13T22:01:08.806Z,35.08
2023-05-13T22:03:38.025Z,35.21
2023-05-13T22:06:08.452Z,35.18
2023-05-13T22:08:38.263Z,35.32
2023-05-13T22:11:09.472Z,35.46
2023-05-13T22:13:39.692Z,35.49
2023-05-13T22:16:11.267Z,35.56
2023-05-13T22:18:41.099Z,35.56
2023-05-13T22:21:12.258Z,35.68
2023-05-13T22:23:41.185Z,35.80
2023-05-13T22:26:10.393Z,35.95
2023-05-13T22:28:39.713Z,36.11
2023-05-13T22:31:09.122Z,36.07
2023-05-13T22:33:41.838Z,36.08
2023-05-13T22:36:11.936Z,36.17
2023-05-13T22:38:41.777Z,36.37
2023-05-13T22:41:12.080Z,36.44
2023-05-13T22:43:44.029Z,36.27
2023-05-13T22:46:13.195Z,36.45
2023-05-13T22:48:42.047Z,36.63
2023-05-13T22:51:11.570Z,36.74
2023-05-13T22:53:42.764Z,36.68
2023-05-13T22:56:13.254Z,36.89
2023-05-13T22:58:41.972Z,36.94
2023-05-13T23:01:11.048Z,37.10
2023-05-13T23:03:41.256Z,37.01
2023-05-13T23:06:11.500Z,36.97
2023-05-13T23:08:40.671Z,37.22
2023-05-13T23:11:09.930Z,37.41
2023-05-13T23:13:40.528Z,37.53
2023-05-13T23:16:09.714Z,37.30
2023-05-13T23:18:39.795Z,37.67
2023-05-13T23:21:09.528Z,37.63
2023-05-13T23:23:40.170Z,37.81
2023-05-13T23:26:10.537Z,37.88
2023-05-13T23:28:39.427Z,38.15
2023-05-13T23:31:08.651Z,38.13
2023-05-13T23:33:37.745Z,38.10
2023-05-13T23:36:07.405Z,38.21
2023-05-13T23:38:38.108Z,38.39
2023-05-13T23:41:06.784Z,38.58
2023-05-13T23:43:37.664Z,38.29
2023-05-13T23:46:06.370Z,38.35
2023-05-13T23:48:36.911Z,38.47
2023-05-13T23:51:07.096Z,38.62
2023-05-13T23:53:35.996Z,38.75
2023-05-13T23:56:08.487Z,38.84
2023-05-13T23:58:37.132Z,38.55
